createdAt,value
2023-02-16T00:01:16.600Z,46.50
2023-02-16T00:03:45.369Z,47.80
2023-02-16T00:06:16.066Z,45.22
2023-02-16T00:08:45.779Z,47.88
2023-02-16T00:11:36.594Z,51.03
2023-02-16T00:14:07.311Z,48.45
2023-02-16T00:16:40.704Z,47.40
2023-02-16T00:19:23.692Z,50.67
2023-02-16T00:21:53.018Z,50.70
2023-02-16T00:24:21.416Z,47.22
2023-02-16T00:26:50.111Z,52.60
2023-02-16T00:29:21.817Z,47.35
2023-02-16T00:31:50.449Z,48.40
2023-02-16T00:34:27.062Z,46.85
2023-02-16T00:36:55.802Z,52.10
2023-02-16T00:39:25.201Z,51.88
2023-02-16T00:41:54.781Z,50.17
2023-02-16T00:44:28.907Z,50.60
2023-02-16T00:46:57.313Z,50.20
2023-02-16T00:49:30.108Z,53.33
2023-02-16T00:52:01.235Z,47.58
2023-02-16T00:54:31.675Z,50.42
2023-02-16T00:57:00.650Z,49.20
2023-02-16T00:59:30.349Z,48.90
2023-02-16T01:02:05.629Z,52.20
2023-02-16T01:04:34.096Z,49.72
2023-02-16T01:07:22.113Z,48.97
2023-02-16T01:10:11.219Z,47.08
2023-02-16T01:12:46.544Z,46.97
2023-02-16T01:15:24.562Z,52.05
2023-02-16T01:17:53.576Z,48.33
2023-02-16T01:20:27.091Z,50.95
2023-02-16T01:22:55.386Z,45.60
2023-02-16T01:25:23.855Z,50.20
2023-02-16T01:27:54.871Z,48.35
2023-02-16T01:30:25.932Z,49.08
2023-02-16T01:32:59.003Z,44.95
2023-02-16T01:35:32.824Z,49.90
2023-02-16T01:38:01.625Z,51.35
2023-02-16T01:40:36.195Z,52.65
2023-02-16T01:43:06.076Z,54.72
2023-02-16T01:45:36.956Z,48.53
2023-02-16T01:48:08.875Z,46.13
2023-02-16T01:50:42.900Z,48.65
2023-02-16T01:53:17.714Z,52.25
2023-02-16T01:55:48.893Z,43.90
2023-02-16T01:58:22.370Z,48.63
2023-02-16T02:01:09.390Z,46.90
2023-02-16T02:03:59.280Z,51.95
2023-02-16T02:06:30.738Z,50.63
2023-02-16T02:09:02.980Z,49.15
2023-02-16T02:11:41.384Z,49.50
2023-02-16T02:14:11.220Z,41.97
2023-02-16T02:16:39.496Z,46.17
2023-02-16T02:19:11.536Z,46.33
2023-02-16T02:22:12.512Z,44.95
2023-02-16T02:24:52.928Z,49.22
2023-02-16T02:27:26.924Z,48.85
2023-02-16T02:30:20.998Z,50.05
2023-02-16T02:33:14.756Z,48.97
2023-02-16T02:35:49.989Z,46.97
2023-02-16T02:38:23.654Z,46.20
2023-02-16T02:40:56.757Z,43.72
2023-02-16T02:43:29.690Z,43.95
2023-02-16T02:46:01.347Z,47.10
2023-02-16T02:48:31.758Z,44.97
2023-02-16T02:51:26.114Z,46.50
2023-02-16T02:54:23.375Z,47.15
2023-02-16T02:57:17.767Z,43.33
2023-02-16T03:00:09.902Z,50.05
2023-02-16T03:02:38.639Z,47.25
2023-02-16T03:05:08.610Z,43.95
2023-02-16T03:07:50.316Z,47.00
2023-02-16T03:10:37.401Z,44.65
2023-02-16T03:13:07.811Z,40.55
2023-02-16T03:15:37.958Z,43.08
2023-02-16T03:18:26.753Z,46.13
2023-02-16T03:21:15.250Z,44.67
2023-02-16T03:24:01.679Z,48.05
2023-02-16T03:26:49.029Z,44.53
2023-02-16T03:29:18.868Z,47.70
2023-02-16T03:31:49.044Z,43.78
2023-02-16T03:34:20.385Z,43.63
2023-02-16T03:36:50.468Z,42.83
2023-02-16T03:39:20.886Z,43.97
2023-02-16T03:41:51.010Z,42.47
2023-02-16T03:44:24.672Z,46.97
2023-02-16T03:46:54.463Z,40.53
2023-02-16T03:49:22.710Z,43.00
2023-02-16T03:51:53.170Z,46.65
2023-02-16T03:54:21.673Z,38.50
2023-02-16T03:56:49.893Z,45.05
2023-02-16T03:59:20.949Z,43.75
2023-02-16T04:01:49.374Z,41.58
2023-02-16T04:04:19.044Z,40.92
2023-02-16T04:06:47.228Z,46.15
2023-02-16T04:09:15.869Z,45.90
2023-02-16T04:12:06.191Z,43.03
2023-02-16T04:14:34.619Z,41.00
2023-02-16T04:17:07.356Z,48.15
2023-02-16T04:19:41.782Z,44.78
2023-02-16T04:22:14.906Z,42.20
2023-02-16T04:24:43.358Z,45.40
2023-02-16T04:27:14.643Z,40.30
2023-02-16T04:29:42.962Z,44.67
2023-02-16T04:32:11.450Z,44.60
2023-02-16T04:34:41.160Z,43.10
2023-02-16T04:37:09.394Z,43.55
2023-02-16T04:39:37.955Z,46.50
2023-02-16T04:42:06.296Z,42.42
2023-02-16T04:44:36.926Z,47.50
2023-02-16T04:47:05.212Z,44.15
2023-02-16T04:49:33.408Z,42.70
2023-02-16T04:52:05.352Z,44.42
2023-02-16T04:54:34.243Z,44.55
2023-02-16T04:57:02.769Z,43.63
2023-02-16T04:59:31.222Z,51.00
2023-02-16T05:02:01.798Z,46.80
2023-02-16T05:04:30.160Z,47.28
2023-02-16T05:07:00.765Z,43.33
2023-02-16T05:09:30.491Z,44.00
2023-02-16T05:12:16.368Z,45.08
2023-02-16T05:14:47.066Z,47.35
2023-02-16T05:17:16.793Z,51.10
2023-02-16T05:19:48.291Z,45.13
2023-02-16T05:22:16.978Z,46.53
2023-02-16T05:24:49.505Z,45.83
2023-02-16T05:27:18.840Z,44.95
2023-02-16T05:29:49.369Z,43.53
2023-02-16T05:32:17.886Z,45.00
2023-02-16T05:34:53.418Z,46.85
2023-02-16T05:37:21.866Z,44.65
2023-02-16T05:39:52.802Z,48.20
2023-02-16T05:42:23.465Z,47.38
2023-02-16T05:44:51.877Z,48.78
2023-02-16T05:47:20.101Z,45.40
2023-02-16T05:49:50.731Z,47.20
2023-02-16T05:52:21.396Z,48.00
2023-02-16T05:54:49.668Z,47.72
2023-02-16T05:57:19.310Z,44.28
2023-02-16T05:59:47.616Z,45.90
2023-02-16T06:02:25.149Z,45.08
2023-02-16T06:04:53.616Z,46.05
2023-02-16T06:07:21.840Z,46.72
2023-02-16T06:09:50.227Z,46.20
2023-02-16T06:12:19.925Z,42.83
2023-02-16T06:14:48.232Z,40.63
2023-02-16T06:17:16.764Z,47.50
2023-02-16T06:19:45.248Z,43.80
2023-02-16T06:22:13.679Z,45.67
2023-02-16T06:24:42.115Z,45.38
2023-02-16T06:27:10.565Z,47.55
2023-02-16T06:29:40.134Z,43.00
2023-02-16T06:32:08.630Z,41.95
2023-02-16T06:34:36.987Z,44.65
2023-02-16T06:37:05.312Z,44.10
2023-02-16T06:39:33.727Z,44.03
2023-02-16T06:42:01.959Z,44.10
2023-02-16T06:44:30.388Z,46.97
2023-02-16T06:47:00.138Z,46.20
2023-02-16T06:49:28.448Z,47.42
2023-02-16T06:51:56.825Z,43.72
2023-02-16T06:54:25.227Z,44.08
2023-02-16T06:56:53.559Z,43.30
2023-02-16T06:59:21.809Z,45.08
2023-02-16T07:01:52.484Z,43.83
2023-02-16T07:04:22.507Z,43.38
2023-02-16T07:06:50.896Z,51.10
2023-02-16T07:09:19.282Z,40.28
2023-02-16T07:11:47.703Z,44.65
2023-02-16T07:14:16.754Z,44.97
2023-02-16T07:16:45.217Z,47.20
2023-02-16T07:19:15.892Z,48.80
2023-02-16T07:21:48.057Z,45.97
2023-02-16T07:24:16.932Z,48.25
2023-02-16T07:26:46.130Z,43.72
2023-02-16T07:29:14.943Z,41.03
2023-02-16T07:31:43.280Z,47.58
2023-02-16T07:34:12.027Z,47.83
2023-02-16T07:36:42.560Z,46.75
2023-02-16T07:39:12.169Z,45.65
2023-02-16T07:41:40.626Z,49.50
2023-02-16T07:44:12.163Z,45.15
2023-02-16T07:46:40.430Z,46.92
2023-02-16T07:49:08.739Z,46.42
2023-02-16T07:51:37.083Z,48.03
2023-02-16T07:54:05.543Z,45.58
2023-02-16T07:56:35.578Z,41.85
2023-02-16T07:59:04.198Z,45.38
2023-02-16T08:01:35.381Z,46.17
2023-02-16T08:04:08.310Z,47.03
2023-02-16T08:06:41.014Z,42.65
2023-02-16T08:09:09.585Z,42.05
2023-02-16T08:11:48.507Z,47.42
2023-02-16T08:14:24.217Z,43.13
2023-02-16T08:16:55.479Z,43.97
2023-02-16T08:19:30.013Z,41.58
2023-02-16T08:21:59.674Z,44.55
2023-02-16T08:24:30.783Z,48.88
2023-02-16T08:27:00.449Z,46.05
2023-02-16T08:29:30.429Z,43.38
2023-02-16T08:31:58.904Z,43.78
2023-02-16T08:34:27.377Z,42.17
2023-02-16T08:36:57.032Z,51.78
2023-02-16T08:39:31.371Z,43.67
2023-02-16T08:42:01.517Z,46.55
2023-02-16T08:44:30.243Z,43.00
2023-02-16T08:47:07.068Z,42.63
2023-02-16T08:49:39.221Z,47.28
2023-02-16T08:52:07.994Z,47.35
2023-02-16T08:54:36.336Z,46.15
2023-02-16T08:57:05.965Z,43.58
2023-02-16T08:59:34.872Z,44.63
2023-02-16T09:02:03.966Z,49.63
2023-02-16T09:04:32.289Z,48.83
2023-02-16T09:07:03.092Z,46.28
2023-02-16T09:09:31.564Z,45.85
2023-02-16T09:11:59.795Z,44.38
2023-02-16T09:14:29.459Z,47.17
2023-02-16T09:16:58.150Z,48.17
2023-02-16T09:19:31.042Z,46.47
2023-02-16T09:21:59.611Z,49.30
2023-02-16T09:24:27.957Z,44.55
2023-02-16T09:26:58.533Z,49.58
2023-02-16T09:29:29.166Z,49.85
2023-02-16T09:31:58.819Z,46.10
2023-02-16T09:34:27.927Z,44.72
2023-02-16T09:37:01.027Z,49.78
2023-02-16T09:39:37.005Z,44.60
2023-02-16T09:42:13.569Z,48.05
2023-02-16T09:44:48.302Z,47.58
2023-02-16T09:47:22.310Z,46.60
2023-02-16T09:49:51.255Z,43.28
2023-02-16T09:52:21.735Z,42.63
2023-02-16T09:54:54.593Z,42.72
2023-02-16T09:57:29.349Z,42.97
2023-02-16T10:00:04.377Z,52.60
2023-02-16T10:02:45.718Z,47.80
2023-02-16T10:05:18.420Z,46.95
2023-02-16T10:07:51.548Z,48.33
2023-02-16T10:10:24.853Z,42.90
2023-02-16T10:12:57.707Z,44.47
2023-02-16T10:15:29.336Z,47.67
2023-02-16T10:18:00.380Z,47.45
2023-02-16T10:20:30.617Z,40.22
2023-02-16T10:23:01.147Z,44.25
2023-02-16T10:25:38.480Z,42.03
2023-02-16T10:28:12.528Z,42.42
2023-02-16T10:30:47.739Z,42.55
2023-02-16T10:33:18.958Z,41.63
2023-02-16T10:35:48.016Z,44.10
2023-02-16T10:38:25.415Z,48.53
2023-02-16T10:40:57.132Z,43.90
2023-02-16T10:43:27.585Z,47.00
2023-02-16T10:45:59.010Z,43.45
2023-02-16T10:48:28.852Z,49.35
2023-02-16T10:50:58.906Z,41.20
2023-02-16T10:53:36.002Z,50.08
2023-02-16T10:56:15.290Z,42.38
2023-02-16T10:58:43.848Z,41.92
2023-02-16T11:01:18.809Z,42.33
2023-02-16T11:03:57.444Z,46.33
2023-02-16T11:06:26.872Z,49.05
2023-02-16T11:08:57.119Z,41.63
2023-02-16T11:11:26.383Z,42.17
2023-02-16T11:13:59.721Z,45.60
2023-02-16T11:16:33.107Z,42.35
2023-02-16T11:19:04.926Z,41.97
2023-02-16T11:21:59.752Z,45.22
2023-02-16T11:24:36.385Z,41.50
2023-02-16T11:27:08.121Z,42.05
2023-02-16T11:29:36.442Z,41.97
2023-02-16T11:32:09.348Z,40.92
2023-02-16T11:34:42.396Z,39.05
2023-02-16T11:37:18.094Z,38.58
2023-02-16T11:39:50.945Z,41.50
2023-02-16T11:42:26.258Z,41.22
2023-02-16T11:44:57.057Z,44.75
2023-02-16T11:47:29.599Z,41.38
2023-02-16T11:50:10.525Z,39.50
2023-02-16T11:52:38.996Z,41.53
2023-02-16T11:55:22.473Z,40.78
2023-02-16T11:57:51.873Z,40.35
2023-02-16T12:00:23.757Z,34.08
2023-02-16T12:03:16.398Z,39.13
2023-02-16T12:05:52.918Z,38.50
2023-02-16T12:08:28.596Z,35.05
2023-02-16T12:11:03.287Z,35.80
2023-02-16T12:13:37.600Z,31.30
2023-02-16T12:16:10.058Z,40.55
2023-02-16T12:18:45.938Z,33.80
2023-02-16T12:21:23.802Z,35.88
2023-02-16T12:23:56.877Z,34.95
2023-02-16T12:26:34.184Z,41.33
2023-02-16T12:29:11.109Z,35.10
2023-02-16T12:31:48.867Z,36.15
2023-02-16T12:34:23.413Z,41.92
2023-02-16T12:37:02.073Z,38.88
2023-02-16T12:39:33.164Z,29.50
2023-02-16T12:42:18.550Z,31.92
2023-02-16T12:44:48.505Z,28.30
2023-02-16T12:47:21.142Z,27.92
2023-02-16T12:49:54.055Z,26.13
2023-02-16T12:52:35.431Z,24.13
2023-02-16T12:55:11.142Z,26.42
2023-02-16T12:57:43.741Z,25.30
2023-02-16T13:00:18.781Z,29.50
2023-02-16T13:02:50.783Z,26.77
2023-02-16T13:05:22.712Z,25.55
2023-02-16T13:07:54.665Z,26.80
2023-02-16T13:10:26.308Z,27.65
2023-02-16T13:12:56.878Z,30.00
2023-02-16T13:15:29.024Z,25.17
2023-02-16T13:18:03.559Z,28.73
2023-02-16T13:20:32.061Z,24.33
2023-02-16T13:23:13.684Z,23.52
2023-02-16T13:25:52.655Z,25.02
2023-02-16T13:28:42.743Z,24.80
2023-02-16T13:31:18.545Z,21.23
2023-02-16T13:33:53.152Z,18.17
2023-02-16T13:36:30.884Z,22.67
2023-02-16T13:39:15.689Z,18.35
2023-02-16T13:41:53.447Z,17.75
2023-02-16T13:44:22.983Z,19.63
2023-02-16T13:46:53.867Z,18.08
2023-02-16T13:49:36.065Z,15.93
2023-02-16T13:52:04.883Z,16.77
2023-02-16T13:54:36.443Z,17.77
2023-02-16T13:57:08.490Z,17.48
2023-02-16T14:00:00.249Z,17.92
2023-02-16T14:02:51.973Z,16.42
2023-02-16T14:05:25.199Z,18.50
2023-02-16T14:08:11.827Z,19.60
2023-02-16T14:11:00.394Z,17.33
2023-02-16T14:13:32.104Z,18.15
2023-02-16T14:16:05.230Z,18.13
2023-02-16T14:18:37.421Z,18.67
2023-02-16T14:21:09.252Z,18.63
2023-02-16T14:23:37.543Z,20.98
2023-02-16T14:26:10.178Z,20.70
2023-02-16T14:29:03.294Z,20.52
2023-02-16T14:31:32.887Z,18.17
2023-02-16T14:34:04.386Z,18.40
2023-02-16T14:36:37.884Z,21.05
2023-02-16T14:39:06.409Z,20.95
2023-02-16T14:41:36.860Z,17.45
2023-02-16T14:44:27.358Z,19.95
2023-02-16T14:47:01.808Z,17.75
2023-02-16T14:49:40.895Z,19.00
2023-02-16T14:52:27.445Z,21.13
2023-02-16T14:55:09.648Z,20.05
2023-02-16T14:57:42.332Z,19.45
2023-02-16T15:00:19.490Z,22.95
2023-02-16T15:03:07.000Z,19.67
2023-02-16T15:05:37.822Z,27.42
2023-02-16T15:08:12.912Z,20.52
2023-02-16T15:10:46.331Z,21.85
2023-02-16T15:13:20.681Z,21.83
2023-02-16T15:15:56.010Z,21.48
2023-02-16T15:18:25.948Z,22.15
2023-02-16T15:20:55.850Z,20.27
2023-02-16T15:23:25.417Z,25.15
2023-02-16T15:25:55.412Z,22.38
2023-02-16T15:28:27.812Z,21.48
2023-02-16T15:30:58.586Z,22.92
2023-02-16T15:33:45.045Z,20.55
2023-02-16T15:36:17.955Z,22.27
2023-02-16T15:38:56.812Z,22.50
2023-02-16T15:41:27.776Z,20.25
2023-02-16T15:43:56.289Z,22.20
2023-02-16T15:46:29.981Z,22.85
2023-02-16T15:48:58.679Z,24.00
2023-02-16T15:51:31.561Z,21.00
2023-02-16T15:54:01.205Z,20.42
2023-02-16T15:56:32.347Z,20.98
2023-02-16T15:59:04.195Z,20.30
2023-02-16T16:01:35.119Z,21.05
2023-02-16T16:04:04.658Z,22.30
2023-02-16T16:06:37.312Z,18.38
2023-02-16T16:09:08.549Z,22.23
2023-02-16T16:11:38.265Z,25.05
2023-02-16T16:14:07.321Z,20.92
2023-02-16T16:16:38.409Z,20.88
2023-02-16T16:19:12.863Z,23.73
2023-02-16T16:21:51.356Z,27.88
2023-02-16T16:24:32.579Z,20.38
2023-02-16T16:27:04.347Z,23.52
2023-02-16T16:29:37.291Z,24.80
2023-02-16T16:32:12.536Z,24.10
2023-02-16T16:34:43.953Z,21.38
2023-02-16T16:37:23.554Z,23.38
2023-02-16T16:40:00.985Z,20.75
2023-02-16T16:42:29.759Z,24.13
2023-02-16T16:45:07.643Z,23.15
2023-02-16T16:47:38.760Z,22.33
2023-02-16T16:50:09.309Z,23.48
2023-02-16T16:52:39.132Z,22.70
2023-02-16T16:55:24.867Z,24.50
2023-02-16T16:57:56.299Z,24.50
2023-02-16T17:00:25.728Z,25.23
2023-02-16T17:02:55.354Z,24.35
2023-02-16T17:05:25.946Z,26.88
2023-02-16T17:07:54.356Z,21.70
2023-02-16T17:10:23.362Z,23.38
2023-02-16T17:12:54.096Z,22.08
2023-02-16T17:15:36.485Z,22.90
2023-02-16T17:18:08.705Z,23.05
2023-02-16T17:20:37.120Z,24.30
2023-02-16T17:23:10.028Z,22.55
2023-02-16T17:25:38.526Z,22.02
2023-02-16T17:28:06.948Z,22.85
2023-02-16T17:30:37.962Z,21.15
2023-02-16T17:33:08.205Z,22.02
2023-02-16T17:35:37.212Z,22.15
2023-02-16T17:38:08.766Z,23.40
2023-02-16T17:40:41.364Z,19.85
2023-02-16T17:43:16.566Z,23.05
2023-02-16T17:45:45.602Z,19.00
2023-02-16T17:48:26.490Z,20.67
2023-02-16T17:50:56.471Z,23.30
2023-02-16T17:53:26.051Z,22.15
2023-02-16T17:55:55.737Z,20.35
2023-02-16T17:58:25.096Z,22.00
2023-02-16T18:00:56.098Z,19.40
2023-02-16T18:03:26.342Z,23.80
2023-02-16T18:05:54.855Z,23.30
2023-02-16T18:08:23.123Z,18.95
2023-02-16T18:10:53.462Z,19.85
2023-02-16T18:13:22.160Z,18.83
2023-02-16T18:15:50.938Z,17.83
2023-02-16T18:18:20.019Z,18.42
2023-02-16T18:20:49.638Z,16.90
2023-02-16T18:23:17.988Z,15.27
2023-02-16T18:25:47.107Z,17.30
2023-02-16T18:28:18.289Z,16.40
2023-02-16T18:30:47.743Z,15.73
2023-02-16T18:33:21.182Z,16.75
2023-02-16T18:35:52.774Z,13.77
2023-02-16T18:38:22.095Z,13.15
2023-02-16T18:40:53.538Z,15.13
2023-02-16T18:43:22.176Z,15.32
2023-02-16T18:45:59.911Z,12.57
2023-02-16T18:48:30.524Z,13.18
2023-02-16T18:51:03.238Z,13.15
2023-02-16T18:53:31.522Z,12.00
2023-02-16T18:56:02.332Z,12.02
2023-02-16T18:58:30.771Z,11.02
2023-02-16T19:00:59.005Z,12.73
2023-02-16T19:03:30.411Z,13.60
2023-02-16T19:06:00.326Z,10.23
2023-02-16T19:08:28.642Z,11.73
2023-02-16T19:10:56.877Z,12.85
2023-02-16T19:13:31.664Z,9.85
2023-02-16T19:16:00.092Z,10.45
2023-02-16T19:18:33.210Z,10.05
2023-02-16T19:21:04.925Z,8.18
2023-02-16T19:23:33.210Z,8.85
2023-02-16T19:26:01.597Z,9.32
2023-02-16T19:28:30.228Z,8.73
2023-02-16T19:31:01.695Z,7.90
2023-02-16T19:33:30.148Z,7.72
2023-02-16T19:36:03.863Z,6.53
2023-02-16T19:38:34.778Z,8.75
2023-02-16T19:41:03.341Z,8.10
2023-02-16T19:43:33.964Z,6.90
2023-02-16T19:46:03.985Z,7.00
2023-02-16T19:48:32.535Z,6.45
2023-02-16T19:51:01.352Z,6.10
2023-02-16T19:53:31.487Z,5.70
2023-02-16T19:56:02.287Z,5.75
2023-02-16T19:58:30.475Z,6.05
2023-02-16T20:01:03.356Z,6.88
2023-02-16T20:03:34.439Z,5.70
2023-02-16T20:06:03.317Z,7.10
2023-02-16T20:08:35.520Z,5.82
2023-02-16T20:11:10.018Z,5.30
2023-02-16T20:13:38.937Z,5.05
2023-02-16T20:16:08.653Z,4.47
2023-02-16T20:18:37.513Z,6.25
2023-02-16T20:21:06.729Z,5.63
2023-02-16T20:23:36.749Z,4.82
2023-02-16T20:26:09.304Z,4.70
2023-02-16T20:28:42.538Z,5.28
2023-02-16T20:31:16.482Z,4.80
2023-02-16T20:33:44.982Z,5.60
2023-02-16T20:36:13.641Z,6.15
2023-02-16T20:38:43.770Z,6.60
2023-02-16T20:41:14.595Z,8.85
2023-02-16T20:43:45.635Z,7.22
2023-02-16T20:46:14.468Z,6.57
2023-02-16T20:48:42.902Z,8.00
2023-02-16T20:51:16.185Z,7.85
2023-02-16T20:53:45.939Z,8.82
2023-02-16T20:56:15.755Z,6.88
2023-02-16T20:58:45.055Z,8.80
2023-02-16T21:01:14.861Z,8.20
2023-02-16T21:03:43.701Z,8.55
2023-02-16T21:06:11.999Z,9.02
2023-02-16T21:08:40.381Z,8.60
2023-02-16T21:11:14.698Z,7.78
2023-02-16T21:13:45.890Z,9.57
2023-02-16T21:16:14.909Z,13.10
2023-02-16T21:18:45.814Z,9.82
2023-02-16T21:21:15.610Z,9.35
2023-02-16T21:23:46.706Z,8.70
2023-02-16T21:26:19.267Z,9.82
2023-02-16T21:28:47.848Z,9.57
2023-02-16T21:31:19.764Z,8.35
2023-02-16T21:33:48.374Z,9.35
2023-02-16T21:36:17.496Z,10.02
2023-02-16T21:38:48.955Z,9.13
2023-02-16T21:41:25.843Z,11.52
2023-02-16T21:43:57.052Z,11.45
2023-02-16T21:46:28.081Z,9.02
2023-02-16T21:48:57.317Z,11.00
2023-02-16T21:51:28.377Z,10.80
2023-02-16T21:54:01.310Z,10.82
2023-02-16T21:56:32.034Z,11.07
2023-02-16T21:59:00.466Z,12.25
2023-02-16T22:01:29.824Z,12.70
2023-02-16T22:04:03.485Z,13.85
2023-02-16T22:06:33.323Z,15.55
2023-02-16T22:09:03.944Z,15.55
2023-02-16T22:11:33.786Z,14.07
2023-02-16T22:14:05.251Z,14.10
2023-02-16T22:16:34.176Z,13.43
2023-02-16T22:19:07.262Z,13.35
2023-02-16T22:21:36.467Z,13.63
2023-02-16T22:24:05.099Z,15.75
2023-02-16T22:26:35.980Z,14.88
2023-02-16T22:29:05.247Z,17.25
2023-02-16T22:31:33.619Z,14.30
2023-02-16T22:34:03.058Z,12.48
2023-02-16T22:36:34.242Z,11.75
2023-02-16T22:39:02.521Z,12.65
2023-02-16T22:41:37.808Z,11.13
2023-02-16T22:44:07.480Z,13.13
2023-02-16T22:46:35.771Z,13.52
2023-02-16T22:49:04.073Z,14.45
2023-02-16T22:51:32.601Z,12.77
2023-02-16T22:54:01.261Z,11.75
2023-02-16T22:56:30.106Z,13.23
2023-02-16T22:59:01.070Z,17.73
2023-02-16T23:01:31.987Z,15.18
2023-02-16T23:04:01.556Z,15.48
2023-02-16T23:06:31.086Z,14.80
2023-02-16T23:09:00.495Z,18.17
2023-02-16T23:11:29.322Z,19.90
2023-02-16T23:13:57.668Z,16.35
2023-02-16T23:16:26.865Z,19.70
2023-02-16T23:19:07.101Z,18.15
2023-02-16T23:21:37.542Z,17.20
2023-02-16T23:24:05.946Z,20.02
2023-02-16T23:26:34.209Z,17.38
2023-02-16T23:29:10.126Z,18.95
2023-02-16T23:31:39.658Z,17.20
2023-02-16T23:34:14.823Z,20.83
2023-02-16T23:36:43.753Z,16.23
2023-02-16T23:39:15.699Z,13.82
2023-02-16T23:41:44.083Z,16.75
2023-02-16T23:44:14.524Z,17.15
2023-02-16T23:46:45.135Z,14.88
2023-02-16T23:49:17.503Z,16.35
2023-02-16T23:51:45.874Z,14.00
2023-02-16T23:54:14.726Z,13.13
2023-02-16T23:56:42.970Z,15.82
2023-02-16T23:59:11.169Z,16.48
